createdAt,value
2022-12-19T00:03:21.280Z,1.07
2022-12-19T00:08:25.710Z,1.10
2022-12-19T00:13:33.580Z,1.16
2022-12-19T00:18:41.256Z,1.22
2022-12-19T00:23:46.661Z,1.30
2022-12-19T00:28:51.149Z,1.33
2022-12-19T00:33:54.031Z,1.41
2022-12-19T00:39:01.331Z,1.43
2022-12-19T00:44:06.066Z,1.45
2022-12-19T00:49:10.501Z,1.45
2022-12-19T00:54:14.848Z,1.55
2022-12-19T00:59:20.094Z,1.61
2022-12-19T01:04:30.364Z,1.67
2022-12-19T01:09:37.148Z,1.73
2022-12-19T01:14:39.960Z,1.78
2022-12-19T01:19:44.729Z,1.58
2022-12-19T01:24:49.179Z,1.87
2022-12-19T01:29:53.008Z,2.01
2022-12-19T01:34:55.944Z,2.07
2022-12-19T01:40:00.030Z,2.11
2022-12-19T01:45:21.048Z,2.14
2022-12-19T01:50:28.757Z,2.20
2022-12-19T01:55:32.920Z,2.18
2022-12-19T02:00:35.724Z,2.18
2022-12-19T02:05:39.107Z,2.22
2022-12-19T02:10:43.327Z,2.30
2022-12-19T02:15:51.773Z,2.35
2022-12-19T02:21:21.434Z,2.43
2022-12-19T02:26:45.386Z,2.47
2022-12-19T02:31:52.155Z,2.52
2022-12-19T02:36:58.940Z,2.60
2022-12-19T02:42:03.866Z,2.68
2022-12-19T02:47:09.886Z,2.69
2022-12-19T02:52:29.933Z,2.76
2022-12-19T02:57:35.048Z,2.89
2022-12-19T03:02:50.455Z,2.87
2022-12-19T03:08:06.113Z,3.03
2022-12-19T03:13:17.013Z,3.09
2022-12-19T03:18:22.081Z,3.17
2022-12-19T03:23:24.969Z,3.24
2022-12-19T03:28:29.555Z,3.31
2022-12-19T03:33:34.165Z,3.38
2022-12-19T03:38:38.107Z,3.46
2022-12-19T03:43:41.333Z,3.50
2022-12-19T03:48:48.081Z,3.51
2022-12-19T03:54:00.224Z,3.61
2022-12-19T03:59:08.480Z,3.70
2022-12-19T04:04:13.401Z,3.74
2022-12-19T04:09:22.148Z,3.77
2022-12-19T04:14:27.304Z,3.87
2022-12-19T04:19:37.425Z,3.87
2022-12-19T04:24:43.675Z,3.93
2022-12-19T04:29:48.350Z,3.97
2022-12-19T04:34:52.579Z,3.93
2022-12-19T04:39:55.406Z,3.88
2022-12-19T04:44:58.422Z,4.04
2022-12-19T04:50:02.638Z,4.07
2022-12-19T04:55:06.066Z,4.11
2022-12-19T05:00:11.211Z,4.24
2022-12-19T05:05:16.522Z,4.29
2022-12-19T05:10:19.368Z,4.39
2022-12-19T05:15:22.183Z,4.44
2022-12-19T05:20:26.352Z,4.50
2022-12-19T05:25:29.306Z,4.66
2022-12-19T05:30:32.391Z,4.67
2022-12-19T05:35:37.056Z,4.69
2022-12-19T05:40:39.893Z,4.77
2022-12-19T05:45:42.718Z,4.82
2022-12-19T05:50:50.549Z,4.93
2022-12-19T05:55:53.335Z,5.05
2022-12-19T06:01:00.696Z,5.15
2022-12-19T06:06:06.215Z,5.21
2022-12-19T06:11:10.610Z,5.31
2022-12-19T06:16:14.823Z,5.45
2022-12-19T06:21:23.217Z,5.52
2022-12-19T06:26:26.097Z,5.62
2022-12-19T06:31:29.025Z,5.71
2022-12-19T06:36:33.296Z,5.76
2022-12-19T06:41:53.949Z,5.86
2022-12-19T06:46:56.794Z,5.91
2022-12-19T06:52:06.317Z,6.05
2022-12-19T06:57:11.875Z,6.17
2022-12-19T07:02:23.463Z,6.24
2022-12-19T07:07:28.859Z,6.33
2022-12-19T07:12:31.780Z,6.43
2022-12-19T07:17:34.799Z,6.54
2022-12-19T07:22:38.996Z,6.62
2022-12-19T07:27:41.832Z,6.61
2022-12-19T07:32:46.418Z,6.67
2022-12-19T07:37:53.337Z,6.79
2022-12-19T07:42:56.386Z,6.82
2022-12-19T07:48:01.411Z,6.88
2022-12-19T07:53:05.570Z,6.95
2022-12-19T07:58:10.318Z,6.97
2022-12-19T08:03:13.150Z,7.03
2022-12-19T08:08:17.842Z,7.02
2022-12-19T08:13:20.833Z,7.03
2022-12-19T08:18:23.773Z,7.09
2022-12-19T08:23:30.265Z,7.03
2022-12-19T08:28:34.164Z,7.12
2022-12-19T08:33:37.630Z,7.19
2022-12-19T08:38:42.272Z,7.11
2022-12-19T08:43:51.446Z,7.20
2022-12-19T08:48:54.721Z,7.12
2022-12-19T08:53:58.968Z,7.30
2022-12-19T08:59:01.893Z,7.26
2022-12-19T09:05:59.489Z,7.33
2022-12-19T09:09:32.182Z,7.35
2022-12-19T09:14:35.600Z,7.36
2022-12-19T09:19:38.428Z,7.46
2022-12-19T09:24:44.159Z,7.49
2022-12-19T09:29:47.040Z,7.55
2022-12-19T09:34:49.858Z,7.66
2022-12-19T09:39:54.063Z,7.69
2022-12-19T09:45:15.484Z,7.74
2022-12-19T09:50:37.186Z,7.77
2022-12-19T09:55:42.722Z,7.81
2022-12-19T10:00:47.961Z,7.82
2022-12-19T10:07:07.741Z,7.80
2022-12-19T10:12:43.073Z,7.81
2022-12-19T10:17:24.043Z,7.83
2022-12-19T10:22:36.795Z,7.91
2022-12-19T10:27:58.760Z,7.93
2022-12-19T10:33:11.616Z,7.90
2022-12-19T10:38:25.419Z,8.01
2022-12-19T10:43:44.476Z,8.10
2022-12-19T10:48:49.523Z,8.10
2022-12-19T10:53:57.054Z,8.10
2022-12-19T10:59:03.149Z,8.16
2022-12-19T11:04:23.664Z,8.18
2022-12-19T11:09:29.814Z,8.24
2022-12-19T11:19:37.096Z,8.33
2022-12-19T11:29:16.121Z,8.33
2022-12-19T11:30:44.329Z,8.36
2022-12-19T11:36:40.318Z,8.38
2022-12-19T11:41:47.707Z,8.40
2022-12-19T11:46:57.612Z,8.42
2022-12-19T11:52:05.515Z,8.50
2022-12-19T11:57:11.084Z,8.56
2022-12-19T12:02:39.551Z,8.58
2022-12-19T12:09:51.769Z,8.66
2022-12-19T12:22:27.825Z,8.68
2022-12-19T12:31:18.383Z,8.60
2022-12-19T12:31:47.313Z,8.52
2022-12-19T12:32:03.187Z,8.53
2022-12-19T12:41:06.039Z,8.57
2022-12-19T12:46:14.695Z,8.60
2022-12-19T12:51:19.559Z,8.62
2022-12-19T12:56:22.515Z,8.63
2022-12-19T13:01:33.882Z,8.70
2022-12-19T13:06:40.223Z,8.69
2022-12-19T13:12:05.462Z,8.67
2022-12-19T13:17:09.038Z,8.72
2022-12-19T13:22:24.539Z,8.68
2022-12-19T13:27:41.503Z,8.63
2022-12-19T13:33:12.441Z,8.71
2022-12-19T13:39:57.349Z,8.76
2022-12-19T13:43:47.686Z,8.84
2022-12-19T13:48:52.197Z,8.89
2022-12-19T13:53:59.903Z,8.95
2022-12-19T13:59:04.733Z,8.90
2022-12-19T14:04:09.953Z,8.92
2022-12-19T14:11:29.559Z,8.92
2022-12-19T14:15:13.115Z,8.97
2022-12-19T14:22:03.625Z,9.11
2022-12-19T14:28:18.191Z,9.12
2022-12-19T14:31:15.070Z,9.09
2022-12-19T14:36:26.120Z,9.11
2022-12-19T14:42:01.443Z,9.16
2022-12-19T14:54:01.974Z,9.09
2022-12-19T14:54:33.735Z,9.05
2022-12-19T14:58:53.652Z,8.94
2022-12-19T15:03:37.224Z,8.79
2022-12-19T15:11:00.469Z,8.66
2022-12-19T15:14:52.997Z,8.62
2022-12-19T15:19:28.592Z,8.60
2022-12-19T15:24:31.700Z,8.53
2022-12-19T15:29:36.284Z,8.44
2022-12-19T15:34:50.457Z,8.36
2022-12-19T15:39:54.318Z,8.41
2022-12-19T15:45:00.233Z,8.30
2022-12-19T15:50:11.585Z,8.32
2022-12-19T15:55:15.708Z,8.43
2022-12-19T16:00:23.407Z,8.47
2022-12-19T16:05:29.108Z,8.49
2022-12-19T16:10:32.208Z,8.35
2022-12-19T16:15:38.357Z,8.37
2022-12-19T16:20:43.057Z,8.54
2022-12-19T16:25:48.327Z,8.63
2022-12-19T16:30:52.804Z,8.64
2022-12-19T16:36:05.235Z,8.64
2022-12-19T16:41:12.520Z,8.63
2022-12-19T16:46:19.940Z,8.47
2022-12-19T16:51:24.461Z,8.28
2022-12-19T16:56:31.135Z,8.12
2022-12-19T17:01:35.765Z,8.08
2022-12-19T17:06:38.609Z,7.96
2022-12-19T17:11:41.973Z,8.04
2022-12-19T17:16:46.390Z,8.05
2022-12-19T17:21:49.564Z,8.20
2022-12-19T17:26:52.502Z,8.20
2022-12-19T17:31:56.754Z,8.14
2022-12-19T17:37:00.927Z,8.09
2022-12-19T17:42:14.246Z,8.03
2022-12-19T17:47:20.079Z,8.02
2022-12-19T17:52:22.909Z,8.03
2022-12-19T17:57:26.854Z,8.02
2022-12-19T18:02:31.467Z,8.06
2022-12-19T18:07:34.724Z,8.06
2022-12-19T18:12:38.796Z,8.08
2022-12-19T18:17:43.460Z,8.01
2022-12-19T18:22:47.992Z,8.13
2022-12-19T18:27:51.543Z,7.94
2022-12-19T18:32:57.703Z,8.01
2022-12-19T18:38:01.366Z,8.03
2022-12-19T18:43:04.227Z,8.02
2022-12-19T18:48:14.046Z,8.04
2022-12-19T18:53:21.626Z,8.03
2022-12-19T18:58:24.492Z,7.99
2022-12-19T19:03:30.826Z,7.95
2022-12-19T19:08:35.242Z,8.01
2022-12-19T19:13:50.451Z,8.03
2022-12-19T19:18:55.908Z,8.03
2022-12-19T19:24:01.930Z,8.11
2022-12-19T19:29:05.084Z,8.25
2022-12-19T19:34:12.668Z,8.43
2022-12-19T19:39:15.724Z,8.67
2022-12-19T19:44:18.708Z,8.74
2022-12-19T19:49:23.241Z,8.85
2022-12-19T19:54:26.018Z,8.90
2022-12-19T19:59:30.622Z,8.99
2022-12-19T20:04:36.232Z,8.98
2022-12-19T20:09:39.175Z,8.98
2022-12-19T20:14:41.967Z,9.05
2022-12-19T20:19:46.146Z,9.02
2022-12-19T20:24:49.250Z,8.92
2022-12-19T20:29:54.986Z,8.98
2022-12-19T20:34:59.380Z,8.84
2022-12-19T20:40:02.300Z,9.09
2022-12-19T20:45:06.184Z,9.11
2022-12-19T20:50:12.816Z,9.14
2022-12-19T20:55:15.983Z,9.19
2022-12-19T21:00:20.061Z,9.27
2022-12-19T21:05:24.343Z,9.28
2022-12-19T21:10:27.181Z,9.27
2022-12-19T21:15:31.444Z,9.25
2022-12-19T21:20:36.115Z,9.28
2022-12-19T21:25:39.278Z,9.33
2022-12-19T21:30:42.471Z,9.43
2022-12-19T21:35:46.647Z,9.46
2022-12-19T21:40:49.665Z,9.46
2022-12-19T21:45:52.437Z,9.52
2022-12-19T21:50:57.584Z,9.51
2022-12-19T21:56:04.963Z,9.41
2022-12-19T22:01:09.432Z,9.49
2022-12-19T22:06:21.008Z,9.51
2022-12-19T22:11:31.832Z,9.53
2022-12-19T22:16:35.534Z,9.52
2022-12-19T22:21:40.451Z,9.55
2022-12-19T22:26:43.576Z,9.52
2022-12-19T22:31:47.043Z,9.56
2022-12-19T22:36:51.269Z,9.51
2022-12-19T22:41:54.109Z,9.39
2022-12-19T22:46:57.026Z,9.46
2022-12-19T22:52:01.204Z,9.41
2022-12-19T22:57:04.012Z,9.38
2022-12-19T23:02:07.066Z,9.41
2022-12-19T23:07:11.450Z,9.26
2022-12-19T23:12:14.316Z,9.46
2022-12-19T23:17:17.471Z,9.44
2022-12-19T23:22:21.684Z,9.46
2022-12-19T23:27:24.590Z,9.50
2022-12-19T23:32:27.533Z,9.42
2022-12-19T23:37:31.721Z,9.28
2022-12-19T23:42:34.609Z,9.16
2022-12-19T23:47:37.514Z,9.06
2022-12-19T23:52:44.529Z,9.06
2022-12-19T23:57:47.434Z,9.08
